createdAt,value
2023-03-15T00:12:14.782Z,17.17
2023-03-15T00:27:36.168Z,10.03
2023-03-15T00:42:57.818Z,26.93
2023-03-15T00:58:18.911Z,11.23
2023-03-15T01:13:40.819Z,8.43
2023-03-15T01:29:02.270Z,5.07
2023-03-15T01:44:24.421Z,1.83
2023-03-15T02:00:02.282Z,3.57
2023-03-15T02:15:23.182Z,3.87
2023-03-15T02:30:44.501Z,4.13
2023-03-15T02:46:05.877Z,2.87
2023-03-15T03:01:27.260Z,1.73
2023-03-15T03:16:48.587Z,1.67
2023-03-15T03:32:10.054Z,1.13
2023-03-15T03:47:31.486Z,1.10
2023-03-15T04:02:54.459Z,1.50
2023-03-15T04:18:15.710Z,0.83
2023-03-15T04:33:37.061Z,1.30
2023-03-15T04:48:58.079Z,1.07
2023-03-15T05:04:19.765Z,1.60
2023-03-15T05:19:42.712Z,1.97
2023-03-15T05:35:04.660Z,1.70
2023-03-15T05:50:28.269Z,3.13
2023-03-15T06:05:49.518Z,2.00
2023-03-15T06:21:10.848Z,3.47
2023-03-15T06:36:32.290Z,2.60
2023-03-15T06:51:53.452Z,2.53
2023-03-15T07:07:15.069Z,2.03
2023-03-15T07:22:36.846Z,2.87
2023-03-15T07:37:58.589Z,3.90
2023-03-15T07:53:20.048Z,3.53
2023-03-15T08:08:41.168Z,2.13
2023-03-15T08:24:02.559Z,2.87
2023-03-15T08:39:24.307Z,3.17
2023-03-15T08:54:45.894Z,2.23
2023-03-15T09:10:07.395Z,2.03
2023-03-15T09:25:28.833Z,3.20
2023-03-15T09:40:50.521Z,3.33
2023-03-15T09:56:25.142Z,3.27
2023-03-15T10:11:52.429Z,2.50
2023-03-15T10:27:23.710Z,2.90
2023-03-15T10:42:45.684Z,5.10
2023-03-15T10:58:16.330Z,2.83
2023-03-15T11:13:38.321Z,2.87
2023-03-15T11:29:01.093Z,2.90
2023-03-15T11:44:34.721Z,4.80
2023-03-15T11:59:56.763Z,2.70
2023-03-15T12:15:20.885Z,2.60
2023-03-15T12:30:42.471Z,4.57
2023-03-15T12:46:04.010Z,1.93
2023-03-15T13:01:26.106Z,1.60
2023-03-15T13:16:57.635Z,3.10
2023-03-15T13:32:19.994Z,2.27
2023-03-15T13:47:42.257Z,2.60
2023-03-15T14:03:05.784Z,1.90
2023-03-15T14:18:27.464Z,1.73
2023-03-15T14:33:54.661Z,4.73
2023-03-15T14:49:20.622Z,2.67
2023-03-15T15:04:44.109Z,3.00
2023-03-15T15:20:07.764Z,2.50
2023-03-15T15:35:29.641Z,2.70
2023-03-15T15:50:51.394Z,2.10
2023-03-15T16:06:20.162Z,3.63
2023-03-15T16:21:48.575Z,2.20
2023-03-15T16:37:13.635Z,2.77
2023-03-15T16:52:35.098Z,4.80
2023-03-15T17:07:56.941Z,4.13
2023-03-15T17:23:18.480Z,5.43
2023-03-15T17:38:42.883Z,5.53
2023-03-15T17:54:06.978Z,3.80
2023-03-15T18:09:28.974Z,5.07
2023-03-15T18:24:50.482Z,4.70
2023-03-15T18:40:13.968Z,2.73
2023-03-15T18:55:35.510Z,23.63
2023-03-15T19:11:00.829Z,22.93
2023-03-15T19:26:22.127Z,22.20
2023-03-15T19:41:44.715Z,12.73
2023-03-15T19:57:05.863Z,21.13
2023-03-15T20:12:27.025Z,16.80
2023-03-15T20:27:48.189Z,15.97
2023-03-15T20:43:11.241Z,18.17
2023-03-15T20:58:32.738Z,27.97
2023-03-15T21:13:54.065Z,22.53
2023-03-15T21:29:15.686Z,18.50
2023-03-15T21:44:39.661Z,15.95
2023-03-15T22:00:01.563Z,23.37
2023-03-15T22:15:22.906Z,18.97
2023-03-15T22:30:43.944Z,17.67
2023-03-15T22:46:05.400Z,14.33
2023-03-15T23:01:34.382Z,18.17
2023-03-15T23:16:55.494Z,13.37
2023-03-15T23:32:18.429Z,12.87
2023-03-15T23:47:39.747Z,11.17
